createdAt,value
2023-05-04T00:00:36.611Z,101105.91
2023-05-04T00:02:38.564Z,101081.75
2023-05-04T00:04:41.873Z,101096.97
2023-05-04T00:06:44.939Z,101092.31
2023-05-04T00:08:47.650Z,101090.50
2023-05-04T00:10:49.249Z,101093.81
2023-05-04T00:12:51.177Z,101091.41
2023-05-04T00:14:52.932Z,101082.16
2023-05-04T00:16:54.814Z,101087.19
2023-05-04T00:18:56.501Z,101076.41
2023-05-04T00:20:58.374Z,101073.41
2023-05-04T00:23:02.834Z,101074.41
2023-05-04T00:25:06.811Z,101079.34
2023-05-04T00:27:08.732Z,101071.78
2023-05-04T00:29:10.310Z,101068.28
2023-05-04T00:31:12.018Z,101073.00
2023-05-04T00:33:13.772Z,101066.06
2023-05-04T00:35:15.478Z,101068.25
2023-05-04T00:37:18.720Z,101060.81
2023-05-04T00:39:21.950Z,101073.00
2023-05-04T00:41:23.627Z,101058.28
2023-05-04T00:43:25.748Z,101062.19
2023-05-04T00:45:29.255Z,101060.69
2023-05-04T00:47:31.908Z,101063.94
2023-05-04T00:49:34.549Z,101058.88
2023-05-04T00:51:37.136Z,101060.59
2023-05-04T00:53:39.200Z,101066.13
2023-05-04T00:55:42.613Z,101061.25
2023-05-04T00:57:44.622Z,101049.88
2023-05-04T00:59:46.706Z,101059.44
2023-05-04T01:01:55.226Z,101058.91
2023-05-04T01:03:57.257Z,101061.06
2023-05-04T01:06:08.273Z,101055.69
2023-05-04T01:08:15.112Z,101061.13
2023-05-04T01:10:22.627Z,101058.50
2023-05-04T01:12:36.531Z,101050.06
2023-05-04T01:14:39.586Z,101058.41
2023-05-04T01:16:41.464Z,101059.63
2023-05-04T01:18:43.107Z,101053.06
2023-05-04T01:20:44.957Z,101053.75
2023-05-04T01:22:48.429Z,101053.75
2023-05-04T01:24:50.856Z,101059.59
2023-05-04T01:26:56.551Z,101050.47
2023-05-04T01:29:04.855Z,101048.19
2023-05-04T01:31:09.425Z,101045.25
2023-05-04T01:33:12.261Z,101049.59
2023-05-04T01:35:14.128Z,101053.41
2023-05-04T01:37:16.156Z,101051.13
2023-05-04T01:39:19.456Z,101048.00
2023-05-04T01:41:20.958Z,101053.84
2023-05-04T01:43:22.909Z,101051.25
2023-05-04T01:45:24.812Z,101056.88
2023-05-04T01:47:27.088Z,101048.44
2023-05-04T01:49:29.991Z,101050.13
2023-05-04T01:51:31.622Z,101053.97
2023-05-04T01:53:33.217Z,101050.22
2023-05-04T01:55:36.390Z,101060.69
2023-05-04T01:57:38.037Z,101056.88
2023-05-04T01:59:39.779Z,101053.75
2023-05-04T02:01:41.579Z,101061.72
2023-05-04T02:03:43.518Z,101060.50
2023-05-04T02:05:45.453Z,101055.97
2023-05-04T02:07:47.148Z,101058.75
2023-05-04T02:09:49.264Z,101068.63
2023-05-04T02:11:53.463Z,101057.09
2023-05-04T02:13:56.557Z,101061.06
2023-05-04T02:15:58.221Z,101052.59
2023-05-04T02:18:00.066Z,101055.03
2023-05-04T02:20:01.857Z,101050.38
2023-05-04T02:22:05.938Z,101053.78
2023-05-04T02:24:07.715Z,101046.53
2023-05-04T02:26:09.339Z,101045.44
2023-05-04T02:28:12.329Z,101046.75
2023-05-04T02:30:14.800Z,101045.53
2023-05-04T02:32:19.861Z,101037.69
2023-05-04T02:34:21.951Z,101045.84
2023-05-04T02:36:23.580Z,101047.34
2023-05-04T02:38:26.116Z,101047.16
2023-05-04T02:40:28.024Z,101049.66
2023-05-04T02:42:29.902Z,101044.63
2023-05-04T02:44:33.166Z,101039.50
2023-05-04T02:46:35.216Z,101038.16
2023-05-04T02:48:38.293Z,101041.50
2023-05-04T02:50:40.582Z,101033.41
2023-05-04T02:52:42.517Z,101038.84
2023-05-04T02:54:44.140Z,101037.75
2023-05-04T02:56:46.040Z,101031.94
2023-05-04T02:58:48.064Z,101038.09
2023-05-04T03:00:55.269Z,101035.28
2023-05-04T03:02:57.215Z,101035.78
2023-05-04T03:05:01.761Z,101032.25
2023-05-04T03:07:03.776Z,101034.88
2023-05-04T03:09:05.520Z,101035.19
2023-05-04T03:11:07.222Z,101032.78
2023-05-04T03:13:08.939Z,101027.72
2023-05-04T03:15:10.946Z,101030.13
2023-05-04T03:17:15.551Z,101031.59
2023-05-04T03:19:17.180Z,101027.66
2023-05-04T03:21:19.104Z,101040.38
2023-05-04T03:23:22.366Z,101028.00
2023-05-04T03:25:23.997Z,101032.50
2023-05-04T03:27:25.720Z,101024.78
2023-05-04T03:29:29.954Z,101030.56
2023-05-04T03:31:31.963Z,101015.28
2023-05-04T03:33:37.348Z,101017.81
2023-05-04T03:35:39.373Z,101019.25
2023-05-04T03:37:41.041Z,101015.59
2023-05-04T03:39:42.965Z,101019.75
2023-05-04T03:41:45.200Z,101009.00
2023-05-04T03:43:47.018Z,101007.38
2023-05-04T03:45:48.607Z,101004.00
2023-05-04T03:47:50.362Z,101006.66
2023-05-04T03:49:53.589Z,101001.88
2023-05-04T03:51:55.177Z,101000.47
2023-05-04T03:53:59.393Z,101002.09
2023-05-04T03:56:01.251Z,101005.56
2023-05-04T03:58:03.326Z,101008.22
2023-05-04T04:00:07.182Z,101003.53
2023-05-04T04:02:09.009Z,101005.34
2023-05-04T04:04:12.184Z,101002.06
2023-05-04T04:06:15.331Z,100998.72
2023-05-04T04:08:17.370Z,101002.59
2023-05-04T04:10:19.197Z,101004.09
2023-05-04T04:12:21.030Z,101005.19
2023-05-04T04:14:23.233Z,100999.97
2023-05-04T04:16:24.945Z,101000.81
2023-05-04T04:18:26.669Z,101011.56
2023-05-04T04:20:28.259Z,101009.75
2023-05-04T04:22:33.304Z,101009.16
2023-05-04T04:24:35.159Z,101000.06
2023-05-04T04:26:36.873Z,101009.09
2023-05-04T04:28:38.481Z,101012.09
2023-05-04T04:30:40.313Z,101010.47
2023-05-04T04:32:41.990Z,101009.47
2023-05-04T04:34:43.916Z,101019.00
2023-05-04T04:36:45.520Z,101016.28
2023-05-04T04:38:48.686Z,101017.91
2023-05-04T04:40:50.353Z,101019.09
2023-05-04T04:42:52.443Z,101016.66
2023-05-04T04:44:54.034Z,101015.63
2023-05-04T04:46:55.995Z,101023.25
2023-05-04T04:48:57.679Z,101033.31
2023-05-04T04:50:59.689Z,101027.88
2023-05-04T04:53:01.253Z,101036.31
2023-05-04T04:55:04.794Z,101035.50
2023-05-04T04:57:06.430Z,101038.13
2023-05-04T04:59:09.958Z,101035.94
2023-05-04T05:01:11.790Z,101041.47
2023-05-04T05:03:16.324Z,101047.38
2023-05-04T05:05:18.075Z,101048.53
2023-05-04T05:07:19.836Z,101049.19
2023-05-04T05:09:21.479Z,101045.94
2023-05-04T05:11:24.429Z,101047.03
2023-05-04T05:13:26.054Z,101043.91
2023-05-04T05:15:27.586Z,101050.69
2023-05-04T05:17:29.138Z,101053.75
2023-05-04T05:19:30.988Z,101054.19
2023-05-04T05:21:32.622Z,101057.81
2023-05-04T05:23:34.295Z,101059.19
2023-05-04T05:25:35.896Z,101059.53
2023-05-04T05:27:38.821Z,101056.53
2023-05-04T05:29:40.376Z,101055.50
2023-05-04T05:31:41.946Z,101053.66
2023-05-04T05:33:43.575Z,101058.25
2023-05-04T05:35:45.168Z,101055.44
2023-05-04T05:37:49.175Z,101054.41
2023-05-04T05:39:50.809Z,101055.72
2023-05-04T05:41:56.002Z,101047.06
2023-05-04T05:43:59.071Z,101057.91
2023-05-04T05:46:00.685Z,101051.41
2023-05-04T05:48:02.503Z,101050.31
2023-05-04T05:50:04.846Z,101053.88
2023-05-04T05:52:06.938Z,101051.16
2023-05-04T05:54:08.531Z,101056.00
2023-05-04T05:56:10.087Z,101056.47
2023-05-04T05:58:11.682Z,101053.69
2023-05-04T06:00:16.528Z,101054.44
2023-05-04T06:02:18.264Z,101059.00
2023-05-04T06:04:20.030Z,101050.28
2023-05-04T06:06:21.632Z,101048.66
2023-05-04T06:08:23.286Z,101050.56
2023-05-04T06:10:25.004Z,101047.47
2023-05-04T06:12:26.591Z,101050.69
2023-05-04T06:14:28.164Z,101050.25
2023-05-04T06:16:31.150Z,101047.16
2023-05-04T06:18:32.672Z,101044.88
2023-05-04T06:20:34.368Z,101036.09
2023-05-04T06:22:35.933Z,101038.06
2023-05-04T06:24:37.493Z,101039.50
2023-05-04T06:26:39.047Z,101044.38
2023-05-04T06:28:40.619Z,101040.09
2023-05-04T06:30:42.191Z,101037.09
2023-05-04T06:32:45.245Z,101039.47
2023-05-04T06:34:46.864Z,101041.16
2023-05-04T06:36:48.423Z,101035.25
2023-05-04T06:38:50.081Z,101032.19
2023-05-04T06:40:51.712Z,101036.13
2023-05-04T06:42:53.314Z,101030.66
2023-05-04T06:44:55.004Z,101028.88
2023-05-04T06:46:56.572Z,101033.91
2023-05-04T06:48:59.474Z,101026.44
2023-05-04T06:51:02.292Z,101029.53
2023-05-04T06:53:07.105Z,101032.31
2023-05-04T06:55:09.027Z,101028.38
2023-05-04T06:57:10.812Z,101036.94
2023-05-04T06:59:12.674Z,101033.16
2023-05-04T07:03:16.250Z,101038.13
2023-05-04T07:05:19.611Z,101040.13
2023-05-04T07:07:21.277Z,101034.59
2023-05-04T07:09:22.872Z,101039.16
2023-05-04T07:11:24.669Z,101030.53
2023-05-04T07:13:26.385Z,101029.63
2023-05-04T07:15:28.246Z,101029.34
2023-05-04T07:17:32.215Z,101030.31
2023-05-04T07:19:34.348Z,101026.47
2023-05-04T07:21:37.508Z,101029.19
2023-05-04T07:23:39.300Z,101019.16
2023-05-04T07:25:40.908Z,101027.00
2023-05-04T07:27:42.553Z,101015.31
2023-05-04T07:29:44.192Z,101017.75
2023-05-04T07:31:45.826Z,101011.03
2023-05-04T07:33:48.053Z,101002.22
2023-05-04T07:35:49.797Z,101009.66
2023-05-04T07:37:53.022Z,101004.34
2023-05-04T07:39:54.664Z,101010.59
2023-05-04T07:41:56.412Z,101006.75
2023-05-04T07:43:58.175Z,101005.31
2023-05-04T07:45:59.844Z,101001.47
2023-05-04T07:48:01.501Z,101004.06
2023-05-04T07:50:03.350Z,100999.56
2023-05-04T07:52:05.770Z,100999.25
2023-05-04T07:54:08.759Z,101006.28
2023-05-04T07:56:11.566Z,101009.50
2023-05-04T07:58:13.394Z,101000.81
2023-05-04T08:00:15.820Z,100997.09
2023-05-04T08:02:17.506Z,100996.31
2023-05-04T08:04:19.587Z,101000.81
2023-05-04T08:06:21.731Z,100993.09
2023-05-04T08:08:23.570Z,100983.91
2023-05-04T08:10:26.782Z,100985.97
2023-05-04T08:12:28.388Z,100982.59
2023-05-04T08:14:30.011Z,100976.47
2023-05-04T08:16:31.658Z,100976.41
2023-05-04T08:18:33.385Z,100970.66
2023-05-04T08:20:35.084Z,100967.56
2023-05-04T08:22:37.022Z,100962.25
2023-05-04T08:24:38.808Z,100968.94
2023-05-04T08:26:43.778Z,100967.31
2023-05-04T08:28:47.079Z,100960.19
2023-05-04T08:30:48.898Z,100966.75
2023-05-04T08:32:50.522Z,100962.88
2023-05-04T08:34:52.439Z,100967.66
2023-05-04T08:36:54.054Z,100960.41
2023-05-04T08:38:55.892Z,100952.66
2023-05-04T08:40:57.665Z,100954.72
2023-05-04T08:43:00.940Z,100946.31
2023-05-04T08:45:02.837Z,100947.47
2023-05-04T08:47:04.844Z,100946.84
2023-05-04T08:49:09.010Z,100941.03
2023-05-04T08:51:11.405Z,100939.84
2023-05-04T08:53:13.129Z,100935.31
2023-05-04T08:55:18.610Z,100937.84
2023-05-04T08:57:22.611Z,100945.38
2023-05-04T08:59:28.109Z,100937.19
2023-05-04T09:01:31.287Z,100934.94
2023-05-04T09:03:34.402Z,100931.97
2023-05-04T09:05:36.995Z,100934.53
2023-05-04T09:07:38.614Z,100942.22
2023-05-04T09:09:40.641Z,100931.84
2023-05-04T09:11:43.415Z,100927.75
2023-05-04T09:13:45.043Z,100924.00
2023-05-04T09:15:55.785Z,100928.03
2023-05-04T09:17:58.628Z,100929.16
2023-05-04T09:20:01.427Z,100915.47
2023-05-04T09:22:13.574Z,100914.44
2023-05-04T09:24:25.911Z,100914.38
2023-05-04T09:26:28.802Z,100915.28
2023-05-04T09:28:35.075Z,100916.66
2023-05-04T09:30:36.780Z,100917.13
2023-05-04T09:32:46.947Z,100907.53
2023-05-04T09:34:50.011Z,100905.03
2023-05-04T09:36:58.753Z,100904.97
2023-05-04T09:39:11.198Z,100907.38
2023-05-04T09:41:13.573Z,100903.03
2023-05-04T09:43:15.256Z,100901.09
2023-05-04T09:45:17.069Z,100896.53
2023-05-04T09:47:18.898Z,100895.38
2023-05-04T09:49:31.308Z,100890.91
2023-05-04T09:51:32.947Z,100892.06
2023-05-04T09:53:40.092Z,100884.75
2023-05-04T09:55:45.221Z,100889.88
2023-05-04T09:57:48.117Z,100888.75
2023-05-04T09:59:50.468Z,100879.38
2023-05-04T10:01:53.681Z,100878.69
2023-05-04T10:03:58.664Z,100882.69
2023-05-04T10:06:04.656Z,100872.97
2023-05-04T10:08:08.213Z,100882.66
2023-05-04T10:10:12.137Z,100877.53
2023-05-04T10:12:13.813Z,100881.06
2023-05-04T10:14:15.529Z,100879.00
2023-05-04T10:16:27.414Z,100875.69
2023-05-04T10:18:41.629Z,100877.41
2023-05-04T10:21:06.605Z,100867.19
2023-05-04T10:23:32.188Z,100868.25
2023-05-04T10:25:59.106Z,100874.88
2023-05-04T10:28:10.025Z,100873.00
2023-05-04T10:30:14.980Z,100875.44
2023-05-04T10:32:20.506Z,100869.69
2023-05-04T10:34:29.457Z,100865.09
2023-05-04T10:36:36.960Z,100864.06
2023-05-04T10:38:39.668Z,100865.00
2023-05-04T10:40:41.318Z,100855.81
2023-05-04T10:42:43.404Z,100860.72
2023-05-04T10:44:52.561Z,100858.16
2023-05-04T10:47:00.342Z,100853.22
2023-05-04T10:49:02.128Z,100846.94
2023-05-04T10:51:03.943Z,100851.63
2023-05-04T10:53:07.255Z,100849.06
2023-05-04T10:55:09.061Z,100845.00
2023-05-04T10:57:12.040Z,100835.72
2023-05-04T10:59:13.729Z,100837.13
2023-05-04T11:01:22.964Z,100832.59
2023-05-04T11:03:25.194Z,100834.28
2023-05-04T11:05:27.315Z,100831.53
2023-05-04T11:07:35.937Z,100823.03
2023-05-04T11:09:45.664Z,100820.41
2023-05-04T11:11:48.342Z,100807.53
2023-05-04T11:13:50.643Z,100806.84
2023-05-04T11:15:52.435Z,100813.22
2023-05-04T11:17:54.346Z,100805.25
2023-05-04T11:19:56.234Z,100807.97
2023-05-04T11:22:01.386Z,100795.84
2023-05-04T11:24:06.447Z,100800.91
2023-05-04T11:26:12.766Z,100797.38
2023-05-04T11:28:14.806Z,100790.56
2023-05-04T11:30:18.586Z,100790.66
2023-05-04T11:32:20.325Z,100784.94
2023-05-04T11:34:22.060Z,100797.09
2023-05-04T11:36:30.482Z,100785.38
2023-05-04T11:38:32.337Z,100770.97
2023-05-04T11:40:35.431Z,100782.34
2023-05-04T11:42:39.081Z,100776.03
2023-05-04T11:44:40.963Z,100777.84
2023-05-04T11:46:42.672Z,100769.59
2023-05-04T11:48:44.828Z,100778.19
2023-05-04T11:50:46.877Z,100769.16
2023-05-04T11:52:49.190Z,100764.88
2023-05-04T11:54:57.541Z,100758.31
2023-05-04T11:57:04.010Z,100766.22
2023-05-04T11:59:11.290Z,100765.78
2023-05-04T12:01:15.898Z,100757.69
2023-05-04T12:03:25.953Z,100747.34
2023-05-04T12:05:31.901Z,100741.38
2023-05-04T12:07:36.564Z,100742.19
2023-05-04T12:09:44.382Z,100747.22
2023-05-04T12:11:53.832Z,100739.59
2023-05-04T12:14:03.237Z,100737.00
2023-05-04T12:16:13.804Z,100739.00
2023-05-04T12:18:30.518Z,100737.94
2023-05-04T12:20:35.029Z,100742.19
2023-05-04T12:22:36.891Z,100732.22
2023-05-04T12:24:38.509Z,100735.63
2023-05-04T12:26:43.306Z,100729.22
2023-05-04T12:28:45.001Z,100727.72
2023-05-04T12:30:46.820Z,100728.56
2023-05-04T12:32:50.857Z,100726.16
2023-05-04T12:34:52.462Z,100718.25
2023-05-04T12:36:54.328Z,100727.50
2023-05-04T12:38:55.992Z,100718.78
2023-05-04T12:40:58.228Z,100714.50
2023-05-04T12:43:01.550Z,100718.06
2023-05-04T12:45:03.850Z,100718.50
2023-05-04T12:47:05.980Z,100707.75
2023-05-04T12:49:09.607Z,100713.69
2023-05-04T12:51:11.387Z,100706.13
2023-05-04T12:53:13.212Z,100703.22
2023-05-04T12:55:14.995Z,100695.13
2023-05-04T12:57:16.671Z,100691.91
2023-05-04T12:59:18.407Z,100685.31
2023-05-04T13:01:20.421Z,100684.69
2023-05-04T13:03:22.270Z,100687.22
2023-05-04T13:05:26.211Z,100683.94
2023-05-04T13:07:27.784Z,100689.00
2023-05-04T13:09:29.431Z,100676.91
2023-05-04T13:11:31.186Z,100686.94
2023-05-04T13:13:32.897Z,100683.75
2023-05-04T13:15:34.621Z,100682.47
2023-05-04T13:17:36.547Z,100668.88
2023-05-04T13:19:38.357Z,100680.25
2023-05-04T13:21:41.390Z,100659.75
2023-05-04T13:23:43.030Z,100660.78
2023-05-04T13:25:44.706Z,100662.81
2023-05-04T13:27:46.294Z,100647.59
2023-05-04T13:29:47.925Z,100648.63
2023-05-04T13:31:50.347Z,100633.91
2023-05-04T13:33:54.021Z,100637.50
2023-05-04T13:35:55.570Z,100627.88
2023-05-04T13:37:58.605Z,100628.88
2023-05-04T13:40:00.339Z,100630.41
2023-05-04T13:42:01.926Z,100622.06
2023-05-04T13:44:03.553Z,100621.81
2023-05-04T13:46:05.567Z,100622.31
2023-05-04T13:48:07.394Z,100625.19
2023-05-04T13:50:09.683Z,100623.03
2023-05-04T13:52:11.458Z,100614.28
2023-05-04T13:54:14.454Z,100610.00
2023-05-04T13:56:16.093Z,100608.78
2023-05-04T13:58:17.951Z,100610.56
2023-05-04T14:00:20.378Z,100597.06
2023-05-04T14:02:22.351Z,100612.16
2023-05-04T14:04:24.410Z,100590.66
2023-05-04T14:06:26.192Z,100598.50
2023-05-04T14:08:27.830Z,100602.84
2023-05-04T14:10:30.952Z,100595.50
2023-05-04T14:12:32.560Z,100588.09
2023-05-04T14:14:34.172Z,100581.63
2023-05-04T14:16:37.463Z,100577.53
2023-05-04T14:18:39.239Z,100576.19
2023-05-04T14:20:40.867Z,100572.72
2023-05-04T14:22:42.499Z,100569.63
2023-05-04T14:24:44.199Z,100556.59
2023-05-04T14:26:47.360Z,100555.00
2023-05-04T14:28:48.956Z,100551.47
2023-05-04T14:30:50.840Z,100552.25
2023-05-04T14:32:54.053Z,100551.88
2023-05-04T14:35:00.365Z,100547.94
2023-05-04T14:37:02.054Z,100551.47
2023-05-04T14:39:04.010Z,100544.31
2023-05-04T14:41:06.271Z,100545.50
2023-05-04T14:43:09.302Z,100550.19
2023-05-04T14:45:11.831Z,100541.09
2023-05-04T14:47:13.505Z,100550.13
2023-05-04T14:49:21.713Z,100543.75
2023-05-04T14:51:30.662Z,100540.91
2023-05-04T14:53:32.630Z,100537.28
2023-05-04T14:55:34.261Z,100534.88
2023-05-04T14:57:35.877Z,100534.09
2023-05-04T14:59:39.114Z,100532.50
2023-05-04T15:01:40.833Z,100531.69
2023-05-04T15:03:42.851Z,100534.03
2023-05-04T15:05:44.947Z,100531.25
2023-05-04T15:07:49.749Z,100525.28
2023-05-04T15:09:54.545Z,100526.81
2023-05-04T15:11:58.105Z,100531.50
2023-05-04T15:13:59.875Z,100527.91
2023-05-04T15:16:03.104Z,100524.75
2023-05-04T15:18:05.156Z,100524.75
2023-05-04T15:20:08.392Z,100524.72
2023-05-04T15:22:10.366Z,100529.81
2023-05-04T15:24:12.033Z,100528.91
2023-05-04T15:26:13.716Z,100524.94
2023-05-04T15:28:15.350Z,100522.97
2023-05-04T15:30:17.777Z,100521.81
2023-05-04T15:32:20.922Z,100520.63
2023-05-04T15:34:22.569Z,100520.56
2023-05-04T15:36:24.186Z,100513.88
2023-05-04T15:38:26.114Z,100509.56
2023-05-04T15:40:28.320Z,100511.06
2023-05-04T15:42:33.114Z,100510.31
2023-05-04T15:44:34.711Z,100507.13
2023-05-04T15:46:36.433Z,100505.94
2023-05-04T15:48:41.172Z,100499.88
2023-05-04T15:50:42.831Z,100495.50
2023-05-04T15:52:49.215Z,100492.75
2023-05-04T15:54:50.941Z,100499.06
2023-05-04T15:56:55.876Z,100492.31
2023-05-04T15:58:57.509Z,100489.59
2023-05-04T16:00:59.225Z,100490.00
2023-05-04T16:03:00.980Z,100489.59
2023-05-04T16:05:04.182Z,100482.13
2023-05-04T16:07:06.026Z,100483.69
2023-05-04T16:09:14.356Z,100477.34
2023-05-04T16:11:16.138Z,100472.63
2023-05-04T16:13:18.107Z,100464.38
2023-05-04T16:15:19.970Z,100471.81
2023-05-04T16:17:22.328Z,100473.38
2023-05-04T16:19:24.192Z,100471.81
2023-05-04T16:21:33.022Z,100473.41
2023-05-04T16:23:34.648Z,100471.84
2023-05-04T16:25:38.991Z,100465.91
2023-05-04T16:27:44.097Z,100465.88
2023-05-04T16:29:46.119Z,100459.94
2023-05-04T16:31:47.941Z,100464.69
2023-05-04T16:33:51.992Z,100461.56
2023-05-04T16:35:53.951Z,100463.97
2023-05-04T16:37:57.254Z,100465.53
2023-05-04T16:39:59.002Z,100463.91
2023-05-04T16:42:00.857Z,100462.31
2023-05-04T16:44:02.560Z,100456.78
2023-05-04T16:46:04.559Z,100459.13
2023-05-04T16:48:06.655Z,100455.53
2023-05-04T16:50:09.208Z,100455.94
2023-05-04T16:52:10.897Z,100451.16
2023-05-04T16:54:18.353Z,100445.22
2023-05-04T16:56:19.920Z,100451.47
2023-05-04T16:58:25.051Z,100451.06
2023-05-04T17:00:36.066Z,100443.97
2023-05-04T17:02:37.743Z,100443.44
2023-05-04T17:04:39.384Z,100447.72
2023-05-04T17:06:43.525Z,100441.41
2023-05-04T17:08:45.325Z,100439.09
2023-05-04T17:10:48.312Z,100437.19
2023-05-04T17:13:00.925Z,100439.56
2023-05-04T17:15:08.029Z,100436.00
2023-05-04T17:17:13.720Z,100436.00
2023-05-04T17:19:15.505Z,100436.75
2023-05-04T17:21:17.126Z,100429.13
2023-05-04T17:23:18.715Z,100429.88
2023-05-04T17:25:20.285Z,100431.84
2023-05-04T17:27:23.371Z,100435.78
2023-05-04T17:29:28.094Z,100443.19
2023-05-04T17:31:29.937Z,100438.84
2023-05-04T17:33:33.453Z,100443.50
2023-05-04T17:35:35.364Z,100445.41
2023-05-04T17:37:36.972Z,100446.13
2023-05-04T17:39:38.574Z,100442.97
2023-05-04T17:41:40.229Z,100441.75
2023-05-04T17:43:43.251Z,100445.22
2023-05-04T17:45:54.289Z,100445.19
2023-05-04T17:47:57.486Z,100439.59
2023-05-04T17:49:59.080Z,100451.44
2023-05-04T17:52:00.912Z,100450.69
2023-05-04T17:54:02.755Z,100451.09
2023-05-04T17:56:04.955Z,100449.47
2023-05-04T17:58:06.869Z,100451.81
2023-05-04T18:00:11.460Z,100457.38
2023-05-04T18:02:13.262Z,100457.72
2023-05-04T18:04:15.210Z,100456.13
2023-05-04T18:06:16.756Z,100459.69
2023-05-04T18:08:18.315Z,100456.44
2023-05-04T18:10:21.048Z,100454.91
2023-05-04T18:12:26.036Z,100457.69
2023-05-04T18:14:29.564Z,100464.34
2023-05-04T18:16:32.918Z,100467.97
2023-05-04T18:18:35.203Z,100467.16
2023-05-04T18:20:37.176Z,100463.94
2023-05-04T18:22:38.864Z,100465.81
2023-05-04T18:24:40.553Z,100464.09
2023-05-04T18:26:42.506Z,100466.06
2023-05-04T18:28:44.391Z,100472.25
2023-05-04T18:30:46.396Z,100477.34
2023-05-04T18:32:49.429Z,100480.91
2023-05-04T18:34:51.380Z,100479.31
2023-05-04T18:36:53.264Z,100486.31
2023-05-04T18:38:54.920Z,100487.44
2023-05-04T18:40:56.761Z,100479.53
2023-05-04T18:42:58.502Z,100483.38
2023-05-04T18:45:01.358Z,100486.88
2023-05-04T18:47:03.126Z,100491.50
2023-05-04T18:49:07.670Z,100495.81
2023-05-04T18:51:09.461Z,100505.16
2023-05-04T18:53:15.490Z,100501.22
2023-05-04T18:55:19.110Z,100502.00
2023-05-04T18:57:20.775Z,100506.56
2023-05-04T18:59:22.428Z,100508.91
2023-05-04T19:01:24.548Z,100505.41
2023-05-04T19:03:26.336Z,100505.38
2023-05-04T19:05:31.627Z,100509.22
2023-05-04T19:07:35.022Z,100512.03
2023-05-04T19:09:36.760Z,100525.00
2023-05-04T19:11:38.738Z,100524.03
2023-05-04T19:13:42.985Z,100524.66
2023-05-04T19:15:45.171Z,100533.19
2023-05-04T19:17:47.209Z,100530.06
2023-05-04T19:19:49.345Z,100530.44
2023-05-04T19:21:52.713Z,100527.19
2023-05-04T19:23:54.394Z,100530.59
2023-05-04T19:25:56.315Z,100533.31
2023-05-04T19:27:58.253Z,100530.50
2023-05-04T19:30:00.006Z,100530.84
2023-05-04T19:32:12.066Z,100538.69
2023-05-04T19:34:18.081Z,100531.09
2023-05-04T19:36:20.129Z,100533.03
2023-05-04T19:38:25.464Z,100536.59
2023-05-04T19:40:27.145Z,100530.16
2023-05-04T19:42:28.771Z,100536.81
2023-05-04T19:44:32.673Z,100530.88
2023-05-04T19:46:34.365Z,100524.53
2023-05-04T19:48:38.433Z,100531.88
2023-05-04T19:50:40.131Z,100524.00
2023-05-04T19:52:42.058Z,100522.75
2023-05-04T19:54:47.578Z,100519.56
2023-05-04T19:56:49.199Z,100530.50
2023-05-04T19:58:51.194Z,100534.41
2023-05-04T20:00:53.000Z,100534.41
2023-05-04T20:02:55.075Z,100532.09
2023-05-04T20:04:56.956Z,100523.78
2023-05-04T20:06:59.109Z,100529.47
2023-05-04T20:09:00.875Z,100529.75
2023-05-04T20:11:06.331Z,100528.09
2023-05-04T20:13:08.647Z,100524.84
2023-05-04T20:15:10.382Z,100531.47
2023-05-04T20:17:13.811Z,100530.22
2023-05-04T20:19:17.617Z,100530.16
2023-05-04T20:21:19.316Z,100524.31
2023-05-04T20:23:21.377Z,100522.34
2023-05-04T20:25:23.357Z,100524.72
2023-05-04T20:27:26.809Z,100526.25
2023-05-04T20:29:28.900Z,100523.13
2023-05-04T20:31:30.612Z,100523.94
2023-05-04T20:33:32.875Z,100524.59
2023-05-04T20:35:34.733Z,100524.66
2023-05-04T20:37:36.375Z,100526.63
2023-05-04T20:39:38.105Z,100521.84
2023-05-04T20:41:39.705Z,100526.13
2023-05-04T20:43:42.697Z,100518.22
2023-05-04T20:45:44.438Z,100523.72
2023-05-04T20:47:46.221Z,100515.13
2023-05-04T20:49:49.516Z,100520.88
2023-05-04T20:51:51.216Z,100524.19
2023-05-04T20:53:52.874Z,100518.09
2023-05-04T20:55:54.910Z,100522.19
2023-05-04T20:57:57.054Z,100513.94
2023-05-04T21:00:01.224Z,100518.13
2023-05-04T21:02:03.366Z,100520.31
2023-05-04T21:04:05.850Z,100512.09
2023-05-04T21:06:08.153Z,100516.06
2023-05-04T21:08:12.254Z,100516.44
2023-05-04T21:10:13.897Z,100514.84
2023-05-04T21:12:15.605Z,100514.38
2023-05-04T21:14:18.108Z,100512.44
2023-05-04T21:16:21.292Z,100506.00
2023-05-04T21:18:23.604Z,100511.72
2023-05-04T21:20:25.458Z,100512.72
2023-05-04T21:22:27.326Z,100504.28
2023-05-04T21:24:28.909Z,100512.44
2023-05-04T21:26:30.567Z,100505.97
2023-05-04T21:28:32.734Z,100513.06
2023-05-04T21:30:34.755Z,100509.78
2023-05-04T21:32:38.255Z,100508.53
2023-05-04T21:34:39.861Z,100515.09
2023-05-04T21:36:42.128Z,100516.84
2023-05-04T21:38:43.866Z,100513.31
2023-05-04T21:40:45.652Z,100517.09
2023-05-04T21:42:48.039Z,100509.59
2023-05-04T21:44:53.866Z,100505.69
2023-05-04T21:46:56.145Z,100512.91
2023-05-04T21:48:59.202Z,100509.69
2023-05-04T21:51:01.270Z,100511.53
2023-05-04T21:53:03.070Z,100504.50
2023-05-04T21:55:05.552Z,100509.97
2023-05-04T21:57:07.125Z,100500.84
2023-05-04T21:59:08.793Z,100507.03
2023-05-04T22:01:15.460Z,100509.06
2023-05-04T22:03:17.163Z,100507.28
2023-05-04T22:05:21.956Z,100512.09
2023-05-04T22:07:23.635Z,100510.06
2023-05-04T22:09:26.150Z,100512.25
2023-05-04T22:11:27.942Z,100511.72
2023-05-04T22:13:29.549Z,100514.69
2023-05-04T22:15:38.395Z,100511.84
2023-05-04T22:17:48.256Z,100515.94
2023-05-04T22:19:49.871Z,100511.88
2023-05-04T22:21:52.941Z,100513.59
2023-05-04T22:23:54.782Z,100509.03
2023-05-04T22:25:56.507Z,100511.56
2023-05-04T22:27:58.292Z,100515.53
2023-05-04T22:29:59.946Z,100512.00
2023-05-04T22:32:01.556Z,100514.31
2023-05-04T22:34:03.281Z,100509.97
2023-05-04T22:36:05.466Z,100511.31
2023-05-04T22:38:08.841Z,100516.22
2023-05-04T22:40:11.300Z,100518.84
2023-05-04T22:42:13.029Z,100516.78
2023-05-04T22:44:14.544Z,100519.41
2023-05-04T22:46:17.471Z,100526.50
2023-05-04T22:48:19.171Z,100525.94
2023-05-04T22:50:21.290Z,100526.97
2023-05-04T22:52:23.914Z,100527.84
2023-05-04T22:54:27.230Z,100527.75
2023-05-04T22:56:28.811Z,100527.63
2023-05-04T22:58:30.653Z,100527.97
2023-05-04T23:00:32.741Z,100526.38
2023-05-04T23:02:34.525Z,100521.38
2023-05-04T23:04:36.263Z,100533.00
2023-05-04T23:06:38.210Z,100528.78
2023-05-04T23:08:39.847Z,100531.28
2023-05-04T23:10:46.044Z,100529.34
2023-05-04T23:12:47.976Z,100525.25
2023-05-04T23:14:50.414Z,100529.00
2023-05-04T23:16:52.454Z,100529.56
2023-05-04T23:18:54.182Z,100526.59
2023-05-04T23:20:55.937Z,100529.81
2023-05-04T23:22:57.681Z,100530.38
2023-05-04T23:24:59.617Z,100533.91